sensor_id;sensor_type;location;lat;lon;timestamp;P1;durP1;ratioP1;P2;durP2;ratioP2
22995;SDS011;11664;49.774;8.650;2023-07-16T00:00:24;28.48;;;26.95;;
22995;SDS011;11664;49.774;8.650;2023-07-16T00:02:53;12.55;;;11.45;;
22995;SDS011;11664;49.774;8.650;2023-07-16T00:05:19;15.43;;;14.43;;
22995;SDS011;11664;49.774;8.650;2023-07-16T00:07:47;8.63;;;8.07;;
22995;SDS011;11664;49.774;8.650;2023-07-16T00:10:13;13.52;;;12.70;;
22995;SDS011;11664;49.774;8.650;2023-07-16T00:12:42;10.63;;;10.02;;
22995;SDS011;11664;49.774;8.650;2023-07-16T00:15:07;8.20;;;7.72;;
22995;SDS011;11664;49.774;8.650;2023-07-16T00:17:36;16.98;;;16.13;;
22995;SDS011;11664;49.774;8.650;2023-07-16T00:20:08;14.98;;;14.18;;
22995;SDS011;11664;49.774;8.650;2023-07-16T00:22:37;15.82;;;14.93;;
22995;SDS011;11664;49.774;8.650;2023-07-16T00:25:06;15.18;;;14.27;;
22995;SDS011;11664;49.774;8.650;2023-07-16T00:27:32;15.32;;;14.50;;
22995;SDS011;11664;49.774;8.650;2023-07-16T00:30:04;16.20;;;15.00;;
22995;SDS011;11664;49.774;8.650;2023-07-16T00:32:30;21.13;;;20.02;;
22995;SDS011;11664;49.774;8.650;2023-07-16T00:35:01;29.17;;;27.65;;
22995;SDS011;11664;49.774;8.650;2023-07-16T00:37:30;21.02;;;19.85;;
22995;SDS011;11664;49.774;8.650;2023-07-16T00:40:00;17.23;;;16.27;;
22995;SDS011;11664;49.774;8.650;2023-07-16T00:42:28;21.38;;;20.23;;
22995;SDS011;11664;49.774;8.650;2023-07-16T00:44:57;41.25;;;39.08;;
22995;SDS011;11664;49.774;8.650;2023-07-16T00:47:22;41.08;;;38.95;;
22995;SDS011;11664;49.774;8.650;2023-07-16T00:50:00;30.63;;;29.02;;
22995;SDS011;11664;49.774;8.650;2023-07-16T00:52:32;31.00;;;29.33;;
22995;SDS011;11664;49.774;8.650;2023-07-16T00:54:57;19.42;;;18.40;;
22995;SDS011;11664;49.774;8.650;2023-07-16T00:57:30;55.45;;;52.40;;
22995;SDS011;11664;49.774;8.650;2023-07-16T00:59:59;31.35;;;29.70;;
22995;SDS011;11664;49.774;8.650;2023-07-16T01:02:28;22.50;;;21.17;;
22995;SDS011;11664;49.774;8.650;2023-07-16T01:04:56;26.23;;;24.77;;
22995;SDS011;11664;49.774;8.650;2023-07-16T01:07:23;19.15;;;18.13;;
22995;SDS011;11664;49.774;8.650;2023-07-16T01:09:51;12.10;;;11.40;;
22995;SDS011;11664;49.774;8.650;2023-07-16T01:12:22;11.73;;;11.07;;
22995;SDS011;11664;49.774;8.650;2023-07-16T01:14:50;13.20;;;12.50;;
22995;SDS011;11664;49.774;8.650;2023-07-16T01:17:17;11.13;;;10.52;;
22995;SDS011;11664;49.774;8.650;2023-07-16T01:19:51;23.23;;;22.00;;
22995;SDS011;11664;49.774;8.650;2023-07-16T01:31:00;43.65;;;41.38;;
22995;SDS011;11664;49.774;8.650;2023-07-16T01:33:35;18.52;;;17.38;;
22995;SDS011;11664;49.774;8.650;2023-07-16T01:36:06;21.38;;;20.17;;
22995;SDS011;11664;49.774;8.650;2023-07-16T01:38:33;23.58;;;22.27;;
22995;SDS011;11664;49.774;8.650;2023-07-16T01:41:06;32.97;;;31.10;;
22995;SDS011;11664;49.774;8.650;2023-07-16T01:43:37;41.15;;;38.75;;
22995;SDS011;11664;49.774;8.650;2023-07-16T01:46:06;27.60;;;25.95;;
22995;SDS011;11664;49.774;8.650;2023-07-16T01:48:38;32.28;;;30.58;;
22995;SDS011;11664;49.774;8.650;2023-07-16T01:53:32;30.80;;;29.23;;
22995;SDS011;11664;49.774;8.650;2023-07-16T01:55:58;29.88;;;28.35;;
22995;SDS011;11664;49.774;8.650;2023-07-16T01:58:27;58.88;;;55.83;;
22995;SDS011;11664;49.774;8.650;2023-07-16T02:00:58;22.90;;;21.60;;
22995;SDS011;11664;49.774;8.650;2023-07-16T02:03:27;31.50;;;29.75;;
22995;SDS011;11664;49.774;8.650;2023-07-16T02:05:52;15.65;;;14.85;;
22995;SDS011;11664;49.774;8.650;2023-07-16T02:08:18;19.17;;;18.10;;
22995;SDS011;11664;49.774;8.650;2023-07-16T02:10:47;51.00;;;48.25;;
22995;SDS011;11664;49.774;8.650;2023-07-16T02:13:13;7.47;;;7.07;;
22995;SDS011;11664;49.774;8.650;2023-07-16T02:15:45;12.65;;;11.75;;
22995;SDS011;11664;49.774;8.650;2023-07-16T02:18:10;17.88;;;16.90;;
22995;SDS011;11664;49.774;8.650;2023-07-16T02:20:39;28.77;;;27.25;;
22995;SDS011;11664;49.774;8.650;2023-07-16T02:23:10;11.45;;;10.48;;
22995;SDS011;11664;49.774;8.650;2023-07-16T02:25:36;24.30;;;23.05;;
22995;SDS011;11664;49.774;8.650;2023-07-16T02:28:01;19.23;;;17.98;;
22995;SDS011;11664;49.774;8.650;2023-07-16T02:30:30;9.95;;;9.40;;
22995;SDS011;11664;49.774;8.650;2023-07-16T02:32:55;21.17;;;20.10;;
22995;SDS011;11664;49.774;8.650;2023-07-16T02:35:27;30.65;;;29.08;;
22995;SDS011;11664;49.774;8.650;2023-07-16T02:37:59;41.28;;;39.10;;
22995;SDS011;11664;49.774;8.650;2023-07-16T02:40:27;13.13;;;12.45;;
22995;SDS011;11664;49.774;8.650;2023-07-16T02:42:53;49.13;;;46.55;;
22995;SDS011;11664;49.774;8.650;2023-07-16T02:45:24;10.02;;;9.43;;
22995;SDS011;11664;49.774;8.650;2023-07-16T02:47:50;9.60;;;8.98;;
22995;SDS011;11664;49.774;8.650;2023-07-16T02:50:23;12.32;;;11.57;;
22995;SDS011;11664;49.774;8.650;2023-07-16T02:52:51;25.08;;;23.52;;
22995;SDS011;11664;49.774;8.650;2023-07-16T02:55:17;14.07;;;13.27;;
22995;SDS011;11664;49.774;8.650;2023-07-16T02:57:46;15.88;;;15.02;;
22995;SDS011;11664;49.774;8.650;2023-07-16T03:00:11;17.38;;;16.35;;
22995;SDS011;11664;49.774;8.650;2023-07-16T03:02:43;21.08;;;19.77;;
22995;SDS011;11664;49.774;8.650;2023-07-16T03:05:09;14.50;;;13.50;;
22995;SDS011;11664;49.774;8.650;2023-07-16T03:07:41;15.23;;;14.40;;
22995;SDS011;11664;49.774;8.650;2023-07-16T03:10:06;12.20;;;11.40;;
22995;SDS011;11664;49.774;8.650;2023-07-16T03:12:32;19.60;;;18.52;;
22995;SDS011;11664;49.774;8.650;2023-07-16T03:14:57;17.63;;;16.63;;
22995;SDS011;11664;49.774;8.650;2023-07-16T03:17:23;8.82;;;8.23;;
22995;SDS011;11664;49.774;8.650;2023-07-16T03:19:52;5.20;;;4.88;;
22995;SDS011;11664;49.774;8.650;2023-07-16T03:22:17;5.22;;;4.82;;
22995;SDS011;11664;49.774;8.650;2023-07-16T03:24:46;6.93;;;6.28;;
22995;SDS011;11664;49.774;8.650;2023-07-16T03:27:20;18.08;;;17.15;;
22995;SDS011;11664;49.774;8.650;2023-07-16T03:29:46;37.83;;;35.85;;
22995;SDS011;11664;49.774;8.650;2023-07-16T03:32:20;14.05;;;13.35;;
22995;SDS011;11664;49.774;8.650;2023-07-16T03:34:52;25.02;;;23.70;;
22995;SDS011;11664;49.774;8.650;2023-07-16T03:37:24;13.20;;;12.50;;
22995;SDS011;11664;49.774;8.650;2023-07-16T03:39:49;43.63;;;41.25;;
22995;SDS011;11664;49.774;8.650;2023-07-16T03:42:21;18.17;;;17.00;;
22995;SDS011;11664;49.774;8.650;2023-07-16T03:44:56;19.70;;;18.55;;
22995;SDS011;11664;49.774;8.650;2023-07-16T03:47:25;9.35;;;8.57;;
22995;SDS011;11664;49.774;8.650;2023-07-16T03:49:50;8.05;;;7.57;;
22995;SDS011;11664;49.774;8.650;2023-07-16T03:52:15;10.35;;;9.65;;
22995;SDS011;11664;49.774;8.650;2023-07-16T03:54:41;17.95;;;16.98;;
22995;SDS011;11664;49.774;8.650;2023-07-16T03:57:06;19.00;;;17.83;;
22995;SDS011;11664;49.774;8.650;2023-07-16T03:59:38;19.40;;;18.27;;
22995;SDS011;11664;49.774;8.650;2023-07-16T04:02:07;13.10;;;12.10;;
22995;SDS011;11664;49.774;8.650;2023-07-16T04:04:38;12.70;;;11.90;;
22995;SDS011;11664;49.774;8.650;2023-07-16T04:07:04;16.77;;;15.57;;
22995;SDS011;11664;49.774;8.650;2023-07-16T04:09:39;11.32;;;10.50;;
22995;SDS011;11664;49.774;8.650;2023-07-16T04:14:33;8.52;;;7.97;;
22995;SDS011;11664;49.774;8.650;2023-07-16T04:17:07;12.68;;;11.85;;
22995;SDS011;11664;49.774;8.650;2023-07-16T04:19:33;12.07;;;11.45;;
22995;SDS011;11664;49.774;8.650;2023-07-16T04:22:02;8.43;;;8.00;;
22995;SDS011;11664;49.774;8.650;2023-07-16T04:24:42;11.65;;;9.20;;
22995;SDS011;11664;49.774;8.650;2023-07-16T04:27:08;8.75;;;7.95;;
22995;SDS011;11664;49.774;8.650;2023-07-16T04:29:34;7.72;;;7.25;;
22995;SDS011;11664;49.774;8.650;2023-07-16T04:31:59;8.07;;;7.38;;
22995;SDS011;11664;49.774;8.650;2023-07-16T04:34:34;4.95;;;4.65;;
22995;SDS011;11664;49.774;8.650;2023-07-16T04:37:02;8.70;;;8.23;;
22995;SDS011;11664;49.774;8.650;2023-07-16T04:39:28;15.05;;;14.07;;
22995;SDS011;11664;49.774;8.650;2023-07-16T04:41:57;6.60;;;6.07;;
22995;SDS011;11664;49.774;8.650;2023-07-16T04:44:25;8.15;;;7.55;;
22995;SDS011;11664;49.774;8.650;2023-07-16T04:46:56;7.30;;;6.63;;
22995;SDS011;11664;49.774;8.650;2023-07-16T04:49:25;7.15;;;6.60;;
22995;SDS011;11664;49.774;8.650;2023-07-16T04:51:53;10.30;;;9.73;;
22995;SDS011;11664;49.774;8.650;2023-07-16T04:54:22;11.25;;;10.45;;
22995;SDS011;11664;49.774;8.650;2023-07-16T04:56:54;7.80;;;7.30;;
22995;SDS011;11664;49.774;8.650;2023-07-16T04:59:22;16.65;;;15.75;;
22995;SDS011;11664;49.774;8.650;2023-07-16T05:01:48;13.18;;;12.38;;
22995;SDS011;11664;49.774;8.650;2023-07-16T05:04:13;17.17;;;15.82;;
22995;SDS011;11664;49.774;8.650;2023-07-16T05:06:51;13.30;;;12.43;;
22995;SDS011;11664;49.774;8.650;2023-07-16T05:09:23;10.75;;;10.07;;
22995;SDS011;11664;49.774;8.650;2023-07-16T05:11:52;7.03;;;6.50;;
22995;SDS011;11664;49.774;8.650;2023-07-16T05:14:25;8.85;;;8.10;;
22995;SDS011;11664;49.774;8.650;2023-07-16T05:16:55;8.07;;;7.57;;
22995;SDS011;11664;49.774;8.650;2023-07-16T05:19:24;9.23;;;8.63;;
22995;SDS011;11664;49.774;8.650;2023-07-16T05:21:50;10.85;;;10.00;;
22995;SDS011;11664;49.774;8.650;2023-07-16T05:24:21;9.32;;;8.73;;
22995;SDS011;11664;49.774;8.650;2023-07-16T05:26:53;7.88;;;7.38;;
22995;SDS011;11664;49.774;8.650;2023-07-16T05:29:25;7.55;;;6.97;;
22995;SDS011;11664;49.774;8.650;2023-07-16T05:31:54;9.30;;;8.80;;
22995;SDS011;11664;49.774;8.650;2023-07-16T05:34:19;13.80;;;13.00;;
22995;SDS011;11664;49.774;8.650;2023-07-16T05:36:48;13.52;;;12.75;;
22995;SDS011;11664;49.774;8.650;2023-07-16T05:39:20;8.68;;;7.63;;
22995;SDS011;11664;49.774;8.650;2023-07-16T05:41:50;4.97;;;4.68;;
22995;SDS011;11664;49.774;8.650;2023-07-16T05:44:15;8.27;;;7.68;;
22995;SDS011;11664;49.774;8.650;2023-07-16T05:46:41;9.65;;;8.80;;
22995;SDS011;11664;49.774;8.650;2023-07-16T05:49:13;12.32;;;11.43;;
22995;SDS011;11664;49.774;8.650;2023-07-16T05:51:39;11.90;;;9.50;;
22995;SDS011;11664;49.774;8.650;2023-07-16T05:54:04;11.52;;;10.88;;
22995;SDS011;11664;49.774;8.650;2023-07-16T05:56:37;17.45;;;16.33;;
22995;SDS011;11664;49.774;8.650;2023-07-16T05:59:15;12.57;;;11.77;;
22995;SDS011;11664;49.774;8.650;2023-07-16T06:01:40;9.75;;;8.95;;
22995;SDS011;11664;49.774;8.650;2023-07-16T06:04:15;8.10;;;7.38;;
22995;SDS011;11664;49.774;8.650;2023-07-16T06:06:44;11.60;;;10.90;;
22995;SDS011;11664;49.774;8.650;2023-07-16T06:09:09;15.93;;;15.00;;
22995;SDS011;11664;49.774;8.650;2023-07-16T06:11:46;13.02;;;12.32;;
22995;SDS011;11664;49.774;8.650;2023-07-16T06:14:12;9.93;;;9.23;;
22995;SDS011;11664;49.774;8.650;2023-07-16T06:16:44;14.90;;;13.95;;
22995;SDS011;11664;49.774;8.650;2023-07-16T06:19:10;21.35;;;20.10;;
22995;SDS011;11664;49.774;8.650;2023-07-16T06:21:40;15.25;;;14.35;;
22995;SDS011;11664;49.774;8.650;2023-07-16T06:24:06;11.43;;;10.73;;
22995;SDS011;11664;49.774;8.650;2023-07-16T06:26:32;7.93;;;7.25;;
22995;SDS011;11664;49.774;8.650;2023-07-16T06:29:00;8.20;;;7.50;;
22995;SDS011;11664;49.774;8.650;2023-07-16T06:31:26;8.77;;;7.90;;
22995;SDS011;11664;49.774;8.650;2023-07-16T06:33:52;11.95;;;10.50;;
22995;SDS011;11664;49.774;8.650;2023-07-16T06:36:17;9.00;;;8.48;;
22995;SDS011;11664;49.774;8.650;2023-07-16T06:38:44;9.02;;;8.32;;
22995;SDS011;11664;49.774;8.650;2023-07-16T06:41:13;9.63;;;9.02;;
22995;SDS011;11664;49.774;8.650;2023-07-16T06:43:38;13.00;;;12.30;;
22995;SDS011;11664;49.774;8.650;2023-07-16T06:46:13;14.40;;;13.40;;
22995;SDS011;11664;49.774;8.650;2023-07-16T06:48:43;18.02;;;17.02;;
22995;SDS011;11664;49.774;8.650;2023-07-16T06:51:11;26.65;;;25.08;;
22995;SDS011;11664;49.774;8.650;2023-07-16T06:53:37;14.20;;;13.40;;
22995;SDS011;11664;49.774;8.650;2023-07-16T06:56:02;12.63;;;11.88;;
22995;SDS011;11664;49.774;8.650;2023-07-16T06:58:40;13.20;;;12.40;;
22995;SDS011;11664;49.774;8.650;2023-07-16T07:01:06;11.25;;;10.50;;
22995;SDS011;11664;49.774;8.650;2023-07-16T07:03:35;12.60;;;11.68;;
22995;SDS011;11664;49.774;8.650;2023-07-16T07:06:06;13.95;;;12.85;;
22995;SDS011;11664;49.774;8.650;2023-07-16T07:08:32;12.00;;;11.23;;
22995;SDS011;11664;49.774;8.650;2023-07-16T07:11:04;13.48;;;12.73;;
22995;SDS011;11664;49.774;8.650;2023-07-16T07:13:29;12.00;;;10.85;;
22995;SDS011;11664;49.774;8.650;2023-07-16T07:16:01;10.13;;;9.23;;
22995;SDS011;11664;49.774;8.650;2023-07-16T07:18:38;8.20;;;7.60;;
22995;SDS011;11664;49.774;8.650;2023-07-16T07:23:40;7.32;;;6.72;;
22995;SDS011;11664;49.774;8.650;2023-07-16T07:26:06;7.78;;;7.10;;
22995;SDS011;11664;49.774;8.650;2023-07-16T07:28:31;7.55;;;7.03;;
22995;SDS011;11664;49.774;8.650;2023-07-16T07:30:57;6.47;;;5.93;;
22995;SDS011;11664;49.774;8.650;2023-07-16T07:33:22;6.70;;;6.00;;
22995;SDS011;11664;49.774;8.650;2023-07-16T07:35:48;6.32;;;5.72;;
22995;SDS011;11664;49.774;8.650;2023-07-16T07:38:13;8.65;;;6.20;;
22995;SDS011;11664;49.774;8.650;2023-07-16T07:40:39;7.45;;;6.38;;
22995;SDS011;11664;49.774;8.650;2023-07-16T07:43:07;7.60;;;6.95;;
22995;SDS011;11664;49.774;8.650;2023-07-16T07:45:33;6.15;;;5.75;;
22995;SDS011;11664;49.774;8.650;2023-07-16T07:47:58;6.43;;;5.93;;
22995;SDS011;11664;49.774;8.650;2023-07-16T07:50:24;7.43;;;6.65;;
22995;SDS011;11664;49.774;8.650;2023-07-16T07:52:50;5.22;;;4.82;;
22995;SDS011;11664;49.774;8.650;2023-07-16T07:55:16;6.15;;;4.85;;
22995;SDS011;11664;49.774;8.650;2023-07-16T07:57:41;4.97;;;4.57;;
22995;SDS011;11664;49.774;8.650;2023-07-16T08:00:07;5.60;;;5.20;;
22995;SDS011;11664;49.774;8.650;2023-07-16T08:02:36;4.97;;;4.57;;
22995;SDS011;11664;49.774;8.650;2023-07-16T08:05:02;5.53;;;5.03;;
22995;SDS011;11664;49.774;8.650;2023-07-16T08:07:27;5.53;;;4.93;;
22995;SDS011;11664;49.774;8.650;2023-07-16T08:09:53;5.43;;;4.07;;
22995;SDS011;11664;49.774;8.650;2023-07-16T08:12:19;5.60;;;4.65;;
22995;SDS011;11664;49.774;8.650;2023-07-16T08:14:44;4.95;;;4.60;;
22995;SDS011;11664;49.774;8.650;2023-07-16T08:17:10;6.90;;;6.38;;
22995;SDS011;11664;49.774;8.650;2023-07-16T08:19:35;9.32;;;5.72;;
22995;SDS011;11664;49.774;8.650;2023-07-16T08:22:01;6.43;;;4.85;;
22995;SDS011;11664;49.774;8.650;2023-07-16T08:24:26;6.45;;;5.85;;
22995;SDS011;11664;49.774;8.650;2023-07-16T08:26:53;8.38;;;6.07;;
22995;SDS011;11664;49.774;8.650;2023-07-16T08:29:18;14.88;;;7.32;;
22995;SDS011;11664;49.774;8.650;2023-07-16T08:31:44;7.93;;;7.32;;
22995;SDS011;11664;49.774;8.650;2023-07-16T08:34:09;5.47;;;5.05;;
22995;SDS011;11664;49.774;8.650;2023-07-16T08:36:36;5.18;;;4.78;;
22995;SDS011;11664;49.774;8.650;2023-07-16T08:39:03;6.63;;;5.57;;
22995;SDS011;11664;49.774;8.650;2023-07-16T08:41:32;6.32;;;4.95;;
22995;SDS011;11664;49.774;8.650;2023-07-16T08:47:06;5.82;;;5.35;;
22995;SDS011;11664;49.774;8.650;2023-07-16T08:56:07;7.07;;;6.60;;
22995;SDS011;11664;49.774;8.650;2023-07-16T08:58:34;9.65;;;6.53;;
22995;SDS011;11664;49.774;8.650;2023-07-16T09:01:45;5.05;;;4.65;;
22995;SDS011;11664;49.774;8.650;2023-07-16T09:07:07;8.65;;;5.05;;
22995;SDS011;11664;49.774;8.650;2023-07-16T09:09:36;5.75;;;5.25;;
22995;SDS011;11664;49.774;8.650;2023-07-16T09:12:04;9.63;;;8.82;;
22995;SDS011;11664;49.774;8.650;2023-07-16T09:14:30;6.90;;;6.50;;
22995;SDS011;11664;49.774;8.650;2023-07-16T09:16:55;5.90;;;5.50;;
22995;SDS011;11664;49.774;8.650;2023-07-16T09:19:25;7.30;;;5.45;;
22995;SDS011;11664;49.774;8.650;2023-07-16T09:22:00;7.70;;;7.03;;
22995;SDS011;11664;49.774;8.650;2023-07-16T09:27:51;7.73;;;7.10;;
22995;SDS011;11664;49.774;8.650;2023-07-16T09:30:19;7.55;;;7.05;;
22995;SDS011;11664;49.774;8.650;2023-07-16T09:32:44;7.88;;;7.22;;
22995;SDS011;11664;49.774;8.650;2023-07-16T09:35:11;10.00;;;9.38;;
22995;SDS011;11664;49.774;8.650;2023-07-16T09:37:38;8.35;;;7.80;;
22995;SDS011;11664;49.774;8.650;2023-07-16T09:40:40;8.02;;;7.45;;
22995;SDS011;11664;49.774;8.650;2023-07-16T09:43:14;7.93;;;7.32;;
22995;SDS011;11664;49.774;8.650;2023-07-16T09:45:43;16.38;;;15.32;;
22995;SDS011;11664;49.774;8.650;2023-07-16T09:48:12;12.20;;;11.57;;
22995;SDS011;11664;49.774;8.650;2023-07-16T09:50:39;11.32;;;10.73;;
22995;SDS011;11664;49.774;8.650;2023-07-16T09:53:09;6.15;;;5.75;;
22995;SDS011;11664;49.774;8.650;2023-07-16T09:55:36;6.35;;;4.35;;
22995;SDS011;11664;49.774;8.650;2023-07-16T09:58:12;4.40;;;4.00;;
22995;SDS011;11664;49.774;8.650;2023-07-16T10:00:38;5.85;;;4.72;;
22995;SDS011;11664;49.774;8.650;2023-07-16T10:03:06;5.75;;;5.35;;
22995;SDS011;11664;49.774;8.650;2023-07-16T10:05:42;6.50;;;6.00;;
22995;SDS011;11664;49.774;8.650;2023-07-16T10:08:18;7.97;;;7.43;;
22995;SDS011;11664;49.774;8.650;2023-07-16T10:13:21;5.40;;;4.97;;
22995;SDS011;11664;49.774;8.650;2023-07-16T10:16:40;6.38;;;5.88;;
22995;SDS011;11664;49.774;8.650;2023-07-16T10:19:05;4.85;;;4.55;;
22995;SDS011;11664;49.774;8.650;2023-07-16T10:32:39;4.55;;;4.25;;
22995;SDS011;11664;49.774;8.650;2023-07-16T10:35:11;4.20;;;3.90;;
22995;SDS011;11664;49.774;8.650;2023-07-16T10:37:38;6.40;;;5.80;;
22995;SDS011;11664;49.774;8.650;2023-07-16T10:40:04;4.35;;;4.00;;
22995;SDS011;11664;49.774;8.650;2023-07-16T10:43:01;5.32;;;5.00;;
22995;SDS011;11664;49.774;8.650;2023-07-16T10:45:33;5.10;;;4.53;;
22995;SDS011;11664;49.774;8.650;2023-07-16T10:48:12;5.60;;;4.45;;
22995;SDS011;11664;49.774;8.650;2023-07-16T10:50:52;5.35;;;5.05;;
22995;SDS011;11664;49.774;8.650;2023-07-16T10:53:22;8.27;;;3.38;;
22995;SDS011;11664;49.774;8.650;2023-07-16T10:56:35;6.88;;;5.75;;
22995;SDS011;11664;49.774;8.650;2023-07-16T11:05:14;7.47;;;6.80;;
22995;SDS011;11664;49.774;8.650;2023-07-16T11:10:58;4.95;;;4.65;;
22995;SDS011;11664;49.774;8.650;2023-07-16T11:13:27;5.15;;;4.75;;
22995;SDS011;11664;49.774;8.650;2023-07-16T11:15:57;5.07;;;4.68;;
22995;SDS011;11664;49.774;8.650;2023-07-16T11:18:34;4.45;;;4.07;;
22995;SDS011;11664;49.774;8.650;2023-07-16T11:21:05;15.35;;;5.72;;
22995;SDS011;11664;49.774;8.650;2023-07-16T11:23:34;5.65;;;5.22;;
22995;SDS011;11664;49.774;8.650;2023-07-16T11:26:01;6.10;;;5.63;;
22995;SDS011;11664;49.774;8.650;2023-07-16T11:28:38;5.35;;;5.05;;
22995;SDS011;11664;49.774;8.650;2023-07-16T11:31:25;6.80;;;6.18;;
22995;SDS011;11664;49.774;8.650;2023-07-16T11:33:50;7.95;;;7.38;;
22995;SDS011;11664;49.774;8.650;2023-07-16T11:36:22;11.48;;;10.77;;
22995;SDS011;11664;49.774;8.650;2023-07-16T11:38:48;9.48;;;8.88;;
22995;SDS011;11664;49.774;8.650;2023-07-16T11:41:20;13.45;;;12.60;;
22995;SDS011;11664;49.774;8.650;2023-07-16T11:43:48;6.78;;;6.38;;
22995;SDS011;11664;49.774;8.650;2023-07-16T11:46:17;4.55;;;4.15;;
22995;SDS011;11664;49.774;8.650;2023-07-16T11:48:54;4.55;;;4.22;;
22995;SDS011;11664;49.774;8.650;2023-07-16T11:51:19;5.25;;;4.50;;
22995;SDS011;11664;49.774;8.650;2023-07-16T11:53:45;4.60;;;4.22;;
22995;SDS011;11664;49.774;8.650;2023-07-16T11:56:31;3.42;;;3.22;;
22995;SDS011;11664;49.774;8.650;2023-07-16T11:59:02;4.50;;;4.10;;
22995;SDS011;11664;49.774;8.650;2023-07-16T12:02:15;4.70;;;4.40;;
22995;SDS011;11664;49.774;8.650;2023-07-16T12:04:59;6.32;;;5.93;;
22995;SDS011;11664;49.774;8.650;2023-07-16T12:07:37;4.45;;;4.15;;
22995;SDS011;11664;49.774;8.650;2023-07-16T12:10:04;4.68;;;4.38;;
22995;SDS011;11664;49.774;8.650;2023-07-16T12:12:54;4.72;;;4.43;;
22995;SDS011;11664;49.774;8.650;2023-07-16T12:15:43;3.67;;;3.38;;
22995;SDS011;11664;49.774;8.650;2023-07-16T12:18:09;3.92;;;3.63;;
22995;SDS011;11664;49.774;8.650;2023-07-16T12:20:34;6.38;;;5.90;;
22995;SDS011;11664;49.774;8.650;2023-07-16T12:23:01;5.00;;;3.75;;
22995;SDS011;11664;49.774;8.650;2023-07-16T12:25:28;4.50;;;4.20;;
22995;SDS011;11664;49.774;8.650;2023-07-16T12:28:01;6.80;;;4.65;;
22995;SDS011;11664;49.774;8.650;2023-07-16T12:34:06;5.80;;;5.40;;
22995;SDS011;11664;49.774;8.650;2023-07-16T12:36:32;6.53;;;6.00;;
22995;SDS011;11664;49.774;8.650;2023-07-16T12:38:58;5.22;;;4.65;;
22995;SDS011;11664;49.774;8.650;2023-07-16T12:41:24;6.15;;;5.45;;
22995;SDS011;11664;49.774;8.650;2023-07-16T12:47:18;18.48;;;13.80;;
22995;SDS011;11664;49.774;8.650;2023-07-16T12:50:03;24.20;;;17.80;;
22995;SDS011;11664;49.774;8.650;2023-07-16T12:52:35;7.93;;;7.20;;
22995;SDS011;11664;49.774;8.650;2023-07-16T12:55:06;6.50;;;5.90;;
22995;SDS011;11664;49.774;8.650;2023-07-16T12:57:31;5.03;;;4.57;;
22995;SDS011;11664;49.774;8.650;2023-07-16T13:00:06;5.32;;;4.38;;
22995;SDS011;11664;49.774;8.650;2023-07-16T13:02:35;5.50;;;5.10;;
22995;SDS011;11664;49.774;8.650;2023-07-16T13:05:02;6.32;;;5.82;;
22995;SDS011;11664;49.774;8.650;2023-07-16T13:07:28;5.97;;;5.57;;
22995;SDS011;11664;49.774;8.650;2023-07-16T13:10:00;8.70;;;7.05;;
22995;SDS011;11664;49.774;8.650;2023-07-16T13:12:26;4.20;;;4.00;;
22995;SDS011;11664;49.774;8.650;2023-07-16T13:14:51;6.05;;;5.50;;
22995;SDS011;11664;49.774;8.650;2023-07-16T13:17:20;6.50;;;6.10;;
22995;SDS011;11664;49.774;8.650;2023-07-16T13:20:02;6.65;;;6.00;;
22995;SDS011;11664;49.774;8.650;2023-07-16T13:22:29;5.53;;;5.03;;
22995;SDS011;11664;49.774;8.650;2023-07-16T13:24:55;6.28;;;4.32;;
22995;SDS011;11664;49.774;8.650;2023-07-16T13:27:22;4.63;;;4.30;;
22995;SDS011;11664;49.774;8.650;2023-07-16T13:29:48;5.25;;;4.40;;
22995;SDS011;11664;49.774;8.650;2023-07-16T13:32:13;4.15;;;3.72;;
22995;SDS011;11664;49.774;8.650;2023-07-16T13:34:39;4.57;;;4.18;;
22995;SDS011;11664;49.774;8.650;2023-07-16T13:37:04;5.60;;;5.10;;
22995;SDS011;11664;49.774;8.650;2023-07-16T13:39:31;5.03;;;4.22;;
22995;SDS011;11664;49.774;8.650;2023-07-16T13:41:56;4.63;;;4.15;;
22995;SDS011;11664;49.774;8.650;2023-07-16T13:44:22;7.28;;;4.28;;
22995;SDS011;11664;49.774;8.650;2023-07-16T13:46:47;4.15;;;3.85;;
22995;SDS011;11664;49.774;8.650;2023-07-16T13:49:13;5.05;;;4.50;;
22995;SDS011;11664;49.774;8.650;2023-07-16T13:51:39;5.07;;;4.63;;
22995;SDS011;11664;49.774;8.650;2023-07-16T13:54:04;5.22;;;4.55;;
22995;SDS011;11664;49.774;8.650;2023-07-16T13:56:30;4.80;;;3.95;;
22995;SDS011;11664;49.774;8.650;2023-07-16T13:58:55;4.57;;;4.00;;
22995;SDS011;11664;49.774;8.650;2023-07-16T14:01:22;6.15;;;4.28;;
22995;SDS011;11664;49.774;8.650;2023-07-16T14:03:48;4.43;;;4.03;;
22995;SDS011;11664;49.774;8.650;2023-07-16T14:06:13;4.20;;;3.80;;
22995;SDS011;11664;49.774;8.650;2023-07-16T14:08:39;10.40;;;4.68;;
22995;SDS011;11664;49.774;8.650;2023-07-16T14:11:04;4.20;;;3.90;;
22995;SDS011;11664;49.774;8.650;2023-07-16T14:13:30;4.35;;;3.95;;
22995;SDS011;11664;49.774;8.650;2023-07-16T14:15:56;4.28;;;3.88;;
22995;SDS011;11664;49.774;8.650;2023-07-16T14:18:22;4.15;;;3.67;;
22995;SDS011;11664;49.774;8.650;2023-07-16T14:20:47;4.25;;;3.90;;
22995;SDS011;11664;49.774;8.650;2023-07-16T14:23:13;5.07;;;4.18;;
22995;SDS011;11664;49.774;8.650;2023-07-16T14:25:38;6.97;;;4.30;;
22995;SDS011;11664;49.774;8.650;2023-07-16T14:28:04;4.93;;;4.47;;
22995;SDS011;11664;49.774;8.650;2023-07-16T14:30:29;5.00;;;4.60;;
22995;SDS011;11664;49.774;8.650;2023-07-16T14:32:55;6.03;;;3.67;;
22995;SDS011;11664;49.774;8.650;2023-07-16T14:35:21;4.75;;;4.25;;
22995;SDS011;11664;49.774;8.650;2023-07-16T14:37:47;4.03;;;3.72;;
22995;SDS011;11664;49.774;8.650;2023-07-16T14:40:13;3.60;;;3.30;;
22995;SDS011;11664;49.774;8.650;2023-07-16T14:42:38;4.65;;;4.20;;
22995;SDS011;11664;49.774;8.650;2023-07-16T14:45:05;4.70;;;4.30;;
22995;SDS011;11664;49.774;8.650;2023-07-16T14:47:32;4.07;;;3.67;;
22995;SDS011;11664;49.774;8.650;2023-07-16T14:49:58;4.50;;;4.15;;
22995;SDS011;11664;49.774;8.650;2023-07-16T14:52:24;8.52;;;4.15;;
22995;SDS011;11664;49.774;8.650;2023-07-16T14:54:49;4.53;;;4.15;;
22995;SDS011;11664;49.774;8.650;2023-07-16T14:57:15;5.00;;;4.40;;
22995;SDS011;11664;49.774;8.650;2023-07-16T14:59:40;5.90;;;3.80;;
22995;SDS011;11664;49.774;8.650;2023-07-16T15:02:06;4.75;;;4.18;;
22995;SDS011;11664;49.774;8.650;2023-07-16T15:04:32;4.45;;;4.05;;
22995;SDS011;11664;49.774;8.650;2023-07-16T15:06:57;5.15;;;4.60;;
22995;SDS011;11664;49.774;8.650;2023-07-16T15:09:23;4.63;;;4.32;;
22995;SDS011;11664;49.774;8.650;2023-07-16T15:11:49;4.78;;;4.07;;
22995;SDS011;11664;49.774;8.650;2023-07-16T15:14:14;5.40;;;4.63;;
22995;SDS011;11664;49.774;8.650;2023-07-16T15:16:40;4.10;;;3.80;;
22995;SDS011;11664;49.774;8.650;2023-07-16T15:19:05;4.18;;;3.80;;
22995;SDS011;11664;49.774;8.650;2023-07-16T15:21:33;4.40;;;3.88;;
22995;SDS011;11664;49.774;8.650;2023-07-16T15:23:58;4.65;;;4.20;;
22995;SDS011;11664;49.774;8.650;2023-07-16T15:26:24;6.85;;;5.22;;
22995;SDS011;11664;49.774;8.650;2023-07-16T15:28:49;7.15;;;6.45;;
22995;SDS011;11664;49.774;8.650;2023-07-16T15:31:15;5.45;;;4.95;;
22995;SDS011;11664;49.774;8.650;2023-07-16T15:33:41;5.53;;;5.13;;
22995;SDS011;11664;49.774;8.650;2023-07-16T15:36:07;5.35;;;3.97;;
22995;SDS011;11664;49.774;8.650;2023-07-16T15:38:33;4.90;;;4.22;;
22995;SDS011;11664;49.774;8.650;2023-07-16T15:40:59;6.13;;;4.53;;
22995;SDS011;11664;49.774;8.650;2023-07-16T15:43:24;4.80;;;4.40;;
22995;SDS011;11664;49.774;8.650;2023-07-16T15:45:50;5.82;;;4.28;;
22995;SDS011;11664;49.774;8.650;2023-07-16T15:48:16;4.22;;;3.83;;
22995;SDS011;11664;49.774;8.650;2023-07-16T15:50:42;6.18;;;4.03;;